sensor_id;sensor_type;location;lat;lon;timestamp;temperature;humidity
48994;DHT22;34804;49.214;12.276;2022-08-19T00:01:25;20.40;90.90
48994;DHT22;34804;49.214;12.276;2022-08-19T00:03:57;20.30;91.20
48994;DHT22;34804;49.214;12.276;2022-08-19T00:06:25;20.30;91.20
48994;DHT22;34804;49.214;12.276;2022-08-19T00:08:52;20.20;90.90
48994;DHT22;34804;49.214;12.276;2022-08-19T00:11:19;20.10;90.90
48994;DHT22;34804;49.214;12.276;2022-08-19T00:13:52;20.00;91.00
48994;DHT22;34804;49.214;12.276;2022-08-19T00:16:23;19.90;91.20
48994;DHT22;34804;49.214;12.276;2022-08-19T00:18:55;19.90;91.40
48994;DHT22;34804;49.214;12.276;2022-08-19T00:21:23;19.90;91.50
48994;DHT22;34804;49.214;12.276;2022-08-19T00:23:51;19.90;91.10
48994;DHT22;34804;49.214;12.276;2022-08-19T00:26:18;19.90;91.00
48994;DHT22;34804;49.214;12.276;2022-08-19T00:28:45;19.80;91.00
48994;DHT22;34804;49.214;12.276;2022-08-19T00:31:13;19.80;91.20
48994;DHT22;34804;49.214;12.276;2022-08-19T00:33:39;19.80;90.90
48994;DHT22;34804;49.214;12.276;2022-08-19T00:36:08;19.80;90.80
48994;DHT22;34804;49.214;12.276;2022-08-19T00:38:37;19.80;90.60
48994;DHT22;34804;49.214;12.276;2022-08-19T00:41:06;19.80;90.70
48994;DHT22;34804;49.214;12.276;2022-08-19T00:43:33;19.80;90.80
48994;DHT22;34804;49.214;12.276;2022-08-19T00:46:00;19.80;90.70
48994;DHT22;34804;49.214;12.276;2022-08-19T00:48:32;19.80;90.70
48994;DHT22;34804;49.214;12.276;2022-08-19T00:51:00;19.80;90.40
48994;DHT22;34804;49.214;12.276;2022-08-19T00:53:29;19.80;90.50
48994;DHT22;34804;49.214;12.276;2022-08-19T00:56:00;19.80;90.50
48994;DHT22;34804;49.214;12.276;2022-08-19T00:58:31;19.80;90.50
48994;DHT22;34804;49.214;12.276;2022-08-19T01:01:01;19.80;90.50
48994;DHT22;34804;49.214;12.276;2022-08-19T01:03:28;19.80;91.00
48994;DHT22;34804;49.214;12.276;2022-08-19T01:06:15;19.80;91.30
48994;DHT22;34804;49.214;12.276;2022-08-19T01:08:46;19.80;91.50
48994;DHT22;34804;49.214;12.276;2022-08-19T01:11:16;19.90;91.70
48994;DHT22;34804;49.214;12.276;2022-08-19T01:13:44;19.90;91.70
48994;DHT22;34804;49.214;12.276;2022-08-19T01:16:17;19.90;91.40
48994;DHT22;34804;49.214;12.276;2022-08-19T01:18:44;19.90;91.20
48994;DHT22;34804;49.214;12.276;2022-08-19T01:21:25;19.90;91.10
48994;DHT22;34804;49.214;12.276;2022-08-19T01:23:54;19.90;91.30
48994;DHT22;34804;49.214;12.276;2022-08-19T01:26:23;19.90;91.40
48994;DHT22;34804;49.214;12.276;2022-08-19T01:28:54;19.90;91.20
48994;DHT22;34804;49.214;12.276;2022-08-19T01:31:28;19.90;91.30
48994;DHT22;34804;49.214;12.276;2022-08-19T01:34:00;20.00;91.20
48994;DHT22;34804;49.214;12.276;2022-08-19T01:36:43;20.00;90.80
48994;DHT22;34804;49.214;12.276;2022-08-19T01:39:17;20.00;90.60
48994;DHT22;34804;49.214;12.276;2022-08-19T01:41:46;20.00;90.90
48994;DHT22;34804;49.214;12.276;2022-08-19T01:44:13;19.90;90.90
48994;DHT22;34804;49.214;12.276;2022-08-19T01:46:46;19.90;91.10
48994;DHT22;34804;49.214;12.276;2022-08-19T01:49:15;19.80;90.90
48994;DHT22;34804;49.214;12.276;2022-08-19T01:51:42;19.90;91.50
48994;DHT22;34804;49.214;12.276;2022-08-19T01:54:11;19.90;91.30
48994;DHT22;34804;49.214;12.276;2022-08-19T01:56:38;19.90;91.30
48994;DHT22;34804;49.214;12.276;2022-08-19T01:59:10;19.90;91.10
48994;DHT22;34804;49.214;12.276;2022-08-19T02:01:38;19.90;91.30
48994;DHT22;34804;49.214;12.276;2022-08-19T02:04:05;20.00;91.20
48994;DHT22;34804;49.214;12.276;2022-08-19T02:06:33;20.00;91.20
48994;DHT22;34804;49.214;12.276;2022-08-19T02:09:01;20.10;91.20
48994;DHT22;34804;49.214;12.276;2022-08-19T02:11:31;20.00;90.80
48994;DHT22;34804;49.214;12.276;2022-08-19T02:14:02;19.90;91.20
48994;DHT22;34804;49.214;12.276;2022-08-19T02:16:29;19.80;91.50
48994;DHT22;34804;49.214;12.276;2022-08-19T02:18:57;19.80;91.50
48994;DHT22;34804;49.214;12.276;2022-08-19T02:21:28;19.90;91.50
48994;DHT22;34804;49.214;12.276;2022-08-19T02:23:55;19.80;91.60
48994;DHT22;34804;49.214;12.276;2022-08-19T02:26:22;19.80;91.60
48994;DHT22;34804;49.214;12.276;2022-08-19T02:28:50;19.80;91.40
48994;DHT22;34804;49.214;12.276;2022-08-19T02:31:19;19.80;91.50
48994;DHT22;34804;49.214;12.276;2022-08-19T02:33:47;19.80;91.50
48994;DHT22;34804;49.214;12.276;2022-08-19T02:36:16;19.80;91.70
48994;DHT22;34804;49.214;12.276;2022-08-19T02:38:47;19.80;91.60
48994;DHT22;34804;49.214;12.276;2022-08-19T02:41:31;19.60;91.40
48994;DHT22;34804;49.214;12.276;2022-08-19T02:44:00;19.60;91.50
48994;DHT22;34804;49.214;12.276;2022-08-19T02:46:48;19.60;91.60
48994;DHT22;34804;49.214;12.276;2022-08-19T02:49:18;19.60;91.80
48994;DHT22;34804;49.214;12.276;2022-08-19T02:51:45;19.70;91.70
48994;DHT22;34804;49.214;12.276;2022-08-19T02:54:13;19.70;91.70
48994;DHT22;34804;49.214;12.276;2022-08-19T02:56:42;19.60;91.60
48994;DHT22;34804;49.214;12.276;2022-08-19T02:59:09;19.70;91.90
48994;DHT22;34804;49.214;12.276;2022-08-19T03:01:40;19.70;92.10
48994;DHT22;34804;49.214;12.276;2022-08-19T03:04:10;19.80;91.90
48994;DHT22;34804;49.214;12.276;2022-08-19T03:06:39;19.80;91.70
48994;DHT22;34804;49.214;12.276;2022-08-19T03:09:06;19.70;91.70
48994;DHT22;34804;49.214;12.276;2022-08-19T03:11:34;19.80;91.70
48994;DHT22;34804;49.214;12.276;2022-08-19T03:14:02;19.80;91.80
48994;DHT22;34804;49.214;12.276;2022-08-19T03:16:32;19.80;91.80
48994;DHT22;34804;49.214;12.276;2022-08-19T03:19:00;19.80;91.70
48994;DHT22;34804;49.214;12.276;2022-08-19T03:21:32;19.70;91.90
48994;DHT22;34804;49.214;12.276;2022-08-19T03:24:02;19.80;92.20
48994;DHT22;34804;49.214;12.276;2022-08-19T03:26:29;19.80;92.30
48994;DHT22;34804;49.214;12.276;2022-08-19T03:29:02;19.80;92.00
48994;DHT22;34804;49.214;12.276;2022-08-19T03:31:31;19.80;92.10
48994;DHT22;34804;49.214;12.276;2022-08-19T03:34:27;19.90;92.10
48994;DHT22;34804;49.214;12.276;2022-08-19T03:36:56;19.90;91.80
48994;DHT22;34804;49.214;12.276;2022-08-19T03:39:25;19.80;92.00
48994;DHT22;34804;49.214;12.276;2022-08-19T03:41:53;19.90;92.10
48994;DHT22;34804;49.214;12.276;2022-08-19T03:44:42;19.90;91.90
48994;DHT22;34804;49.214;12.276;2022-08-19T03:47:11;19.80;91.80
48994;DHT22;34804;49.214;12.276;2022-08-19T03:49:42;19.90;92.00
48994;DHT22;34804;49.214;12.276;2022-08-19T03:52:09;19.90;91.90
48994;DHT22;34804;49.214;12.276;2022-08-19T03:54:36;20.00;91.90
48994;DHT22;34804;49.214;12.276;2022-08-19T03:57:05;20.00;91.70
48994;DHT22;34804;49.214;12.276;2022-08-19T03:59:34;20.00;91.80
48994;DHT22;34804;49.214;12.276;2022-08-19T04:02:05;19.90;91.70
48994;DHT22;34804;49.214;12.276;2022-08-19T04:04:36;19.90;91.40
48994;DHT22;34804;49.214;12.276;2022-08-19T04:07:04;19.90;91.60
48994;DHT22;34804;49.214;12.276;2022-08-19T04:09:32;19.90;91.50
48994;DHT22;34804;49.214;12.276;2022-08-19T04:11:59;19.80;91.50
48994;DHT22;34804;49.214;12.276;2022-08-19T04:14:29;19.80;91.60
48994;DHT22;34804;49.214;12.276;2022-08-19T04:16:58;19.80;91.60
48994;DHT22;34804;49.214;12.276;2022-08-19T04:19:26;19.90;91.70
48994;DHT22;34804;49.214;12.276;2022-08-19T04:21:54;19.90;91.80
48994;DHT22;34804;49.214;12.276;2022-08-19T04:24:22;20.00;91.90
48994;DHT22;34804;49.214;12.276;2022-08-19T04:26:49;19.90;91.80
48994;DHT22;34804;49.214;12.276;2022-08-19T04:29:22;19.90;91.80
48994;DHT22;34804;49.214;12.276;2022-08-19T04:31:52;19.90;91.90
48994;DHT22;34804;49.214;12.276;2022-08-19T04:34:21;19.90;91.80
48994;DHT22;34804;49.214;12.276;2022-08-19T04:36:50;19.80;92.00
48994;DHT22;34804;49.214;12.276;2022-08-19T04:39:21;19.80;92.30
48994;DHT22;34804;49.214;12.276;2022-08-19T04:41:48;19.80;92.20
48994;DHT22;34804;49.214;12.276;2022-08-19T04:44:35;19.90;92.30
48994;DHT22;34804;49.214;12.276;2022-08-19T04:47:12;19.90;92.30
48994;DHT22;34804;49.214;12.276;2022-08-19T04:49:39;19.90;92.00
48994;DHT22;34804;49.214;12.276;2022-08-19T04:52:05;19.90;91.90
48994;DHT22;34804;49.214;12.276;2022-08-19T04:54:32;19.80;91.80
48994;DHT22;34804;49.214;12.276;2022-08-19T04:57:06;19.80;92.20
48994;DHT22;34804;49.214;12.276;2022-08-19T04:59:35;19.80;92.30
48994;DHT22;34804;49.214;12.276;2022-08-19T05:02:03;19.80;92.40
48994;DHT22;34804;49.214;12.276;2022-08-19T05:04:30;19.80;92.50
48994;DHT22;34804;49.214;12.276;2022-08-19T05:06:59;19.90;92.60
48994;DHT22;34804;49.214;12.276;2022-08-19T05:09:28;20.00;92.50
48994;DHT22;34804;49.214;12.276;2022-08-19T05:12:15;20.00;92.30
48994;DHT22;34804;49.214;12.276;2022-08-19T05:14:43;20.10;92.10
48994;DHT22;34804;49.214;12.276;2022-08-19T05:17:12;20.00;91.70
48994;DHT22;34804;49.214;12.276;2022-08-19T05:19:59;20.00;91.60
48994;DHT22;34804;49.214;12.276;2022-08-19T05:22:46;20.00;91.80
48994;DHT22;34804;49.214;12.276;2022-08-19T05:25:18;20.00;92.10
48994;DHT22;34804;49.214;12.276;2022-08-19T05:27:46;20.10;92.30
48994;DHT22;34804;49.214;12.276;2022-08-19T05:30:14;20.10;91.80
48994;DHT22;34804;49.214;12.276;2022-08-19T05:32:41;20.10;91.70
48994;DHT22;34804;49.214;12.276;2022-08-19T05:35:09;20.10;91.20
48994;DHT22;34804;49.214;12.276;2022-08-19T05:37:38;20.20;91.40
48994;DHT22;34804;49.214;12.276;2022-08-19T05:40:09;20.30;90.80
48994;DHT22;34804;49.214;12.276;2022-08-19T05:42:37;20.20;90.40
48994;DHT22;34804;49.214;12.276;2022-08-19T05:45:04;20.10;90.80
48994;DHT22;34804;49.214;12.276;2022-08-19T05:47:31;20.20;90.60
48994;DHT22;34804;49.214;12.276;2022-08-19T05:49:58;20.30;90.60
48994;DHT22;34804;49.214;12.276;2022-08-19T05:52:25;20.30;90.20
48994;DHT22;34804;49.214;12.276;2022-08-19T05:54:53;20.30;90.10
48994;DHT22;34804;49.214;12.276;2022-08-19T05:57:23;20.30;90.40
48994;DHT22;34804;49.214;12.276;2022-08-19T05:59:51;20.40;90.10
48994;DHT22;34804;49.214;12.276;2022-08-19T06:02:27;20.40;90.00
48994;DHT22;34804;49.214;12.276;2022-08-19T06:04:54;20.50;90.00
48994;DHT22;34804;49.214;12.276;2022-08-19T06:07:21;20.50;90.20
48994;DHT22;34804;49.214;12.276;2022-08-19T06:09:48;20.50;90.50
48994;DHT22;34804;49.214;12.276;2022-08-19T06:12:34;20.60;90.50
48994;DHT22;34804;49.214;12.276;2022-08-19T06:15:05;20.70;89.80
48994;DHT22;34804;49.214;12.276;2022-08-19T06:17:33;20.60;89.60
48994;DHT22;34804;49.214;12.276;2022-08-19T06:20:06;20.70;89.30
48994;DHT22;34804;49.214;12.276;2022-08-19T06:22:38;20.60;89.10
48994;DHT22;34804;49.214;12.276;2022-08-19T06:25:05;20.60;89.50
48994;DHT22;34804;49.214;12.276;2022-08-19T06:27:32;20.60;89.70
48994;DHT22;34804;49.214;12.276;2022-08-19T06:30:00;20.70;89.70
48994;DHT22;34804;49.214;12.276;2022-08-19T06:32:28;20.80;89.80
48994;DHT22;34804;49.214;12.276;2022-08-19T06:34:55;20.80;89.40
48994;DHT22;34804;49.214;12.276;2022-08-19T06:37:22;20.90;89.20
48994;DHT22;34804;49.214;12.276;2022-08-19T06:39:49;21.10;89.30
48994;DHT22;34804;49.214;12.276;2022-08-19T06:42:16;21.20;88.50
48994;DHT22;34804;49.214;12.276;2022-08-19T06:44:47;21.20;88.00
48994;DHT22;34804;49.214;12.276;2022-08-19T06:47:21;21.20;87.30
48994;DHT22;34804;49.214;12.276;2022-08-19T06:49:53;21.30;86.90
48994;DHT22;34804;49.214;12.276;2022-08-19T06:52:26;21.30;86.80
48994;DHT22;34804;49.214;12.276;2022-08-19T06:54:54;21.30;86.60
48994;DHT22;34804;49.214;12.276;2022-08-19T06:57:25;21.30;86.50
48994;DHT22;34804;49.214;12.276;2022-08-19T06:59:53;21.30;86.70
48994;DHT22;34804;49.214;12.276;2022-08-19T07:02:19;21.30;86.50
48994;DHT22;34804;49.214;12.276;2022-08-19T07:04:47;21.30;86.80
48994;DHT22;34804;49.214;12.276;2022-08-19T07:07:19;21.30;86.00
48994;DHT22;34804;49.214;12.276;2022-08-19T07:09:48;21.20;85.80
48994;DHT22;34804;49.214;12.276;2022-08-19T07:12:30;21.20;86.20
48994;DHT22;34804;49.214;12.276;2022-08-19T07:15:01;21.10;86.40
48994;DHT22;34804;49.214;12.276;2022-08-19T07:17:29;21.10;86.30
48994;DHT22;34804;49.214;12.276;2022-08-19T07:19:56;21.10;86.60
48994;DHT22;34804;49.214;12.276;2022-08-19T07:22:31;21.10;85.90
48994;DHT22;34804;49.214;12.276;2022-08-19T07:24:59;21.10;86.00
48994;DHT22;34804;49.214;12.276;2022-08-19T07:27:26;21.20;86.10
48994;DHT22;34804;49.214;12.276;2022-08-19T07:29:54;21.30;86.40
48994;DHT22;34804;49.214;12.276;2022-08-19T07:32:24;21.30;86.40
48994;DHT22;34804;49.214;12.276;2022-08-19T07:34:53;21.30;86.20
48994;DHT22;34804;49.214;12.276;2022-08-19T07:37:22;21.30;85.90
48994;DHT22;34804;49.214;12.276;2022-08-19T07:39:50;21.20;85.30
48994;DHT22;34804;49.214;12.276;2022-08-19T07:42:17;21.30;86.80
48994;DHT22;34804;49.214;12.276;2022-08-19T07:44:47;21.30;86.60
48994;DHT22;34804;49.214;12.276;2022-08-19T07:47:17;21.40;86.50
48994;DHT22;34804;49.214;12.276;2022-08-19T07:50:06;21.30;86.30
48994;DHT22;34804;49.214;12.276;2022-08-19T07:52:34;21.30;85.60
48994;DHT22;34804;49.214;12.276;2022-08-19T07:55:04;21.30;85.80
48994;DHT22;34804;49.214;12.276;2022-08-19T07:57:31;21.40;86.00
48994;DHT22;34804;49.214;12.276;2022-08-19T07:59:58;21.30;85.80
48994;DHT22;34804;49.214;12.276;2022-08-19T08:02:25;21.40;85.70
48994;DHT22;34804;49.214;12.276;2022-08-19T08:04:52;21.40;85.40
48994;DHT22;34804;49.214;12.276;2022-08-19T08:07:39;21.40;86.20
48994;DHT22;34804;49.214;12.276;2022-08-19T08:10:24;21.40;86.70
48994;DHT22;34804;49.214;12.276;2022-08-19T08:12:52;21.40;86.80
48994;DHT22;34804;49.214;12.276;2022-08-19T08:15:37;21.30;86.80
48994;DHT22;34804;49.214;12.276;2022-08-19T08:18:10;21.30;86.30
48994;DHT22;34804;49.214;12.276;2022-08-19T08:20:38;21.40;86.30
48994;DHT22;34804;49.214;12.276;2022-08-19T08:23:05;21.30;85.90
48994;DHT22;34804;49.214;12.276;2022-08-19T08:25:56;21.40;86.40
48994;DHT22;34804;49.214;12.276;2022-08-19T08:28:24;21.40;85.20
48994;DHT22;34804;49.214;12.276;2022-08-19T08:30:56;21.40;85.20
48994;DHT22;34804;49.214;12.276;2022-08-19T08:33:26;21.40;84.50
48994;DHT22;34804;49.214;12.276;2022-08-19T08:36:10;21.40;84.60
48994;DHT22;34804;49.214;12.276;2022-08-19T08:38:37;21.50;84.80
48994;DHT22;34804;49.214;12.276;2022-08-19T08:43:51;21.60;85.00
48994;DHT22;34804;49.214;12.276;2022-08-19T08:46:20;21.60;84.50
48994;DHT22;34804;49.214;12.276;2022-08-19T08:49:06;21.60;84.90
48994;DHT22;34804;49.214;12.276;2022-08-19T08:51:50;21.70;84.60
48994;DHT22;34804;49.214;12.276;2022-08-19T08:54:40;21.80;83.90
48994;DHT22;34804;49.214;12.276;2022-08-19T08:57:40;21.90;84.30
48994;DHT22;34804;49.214;12.276;2022-08-19T09:00:15;22.20;83.60
48994;DHT22;34804;49.214;12.276;2022-08-19T09:02:44;22.40;83.10
48994;DHT22;34804;49.214;12.276;2022-08-19T09:05:17;22.70;80.40
48994;DHT22;34804;49.214;12.276;2022-08-19T09:08:12;22.80;78.80
48994;DHT22;34804;49.214;12.276;2022-08-19T09:10:43;23.00;78.50
48994;DHT22;34804;49.214;12.276;2022-08-19T09:13:14;23.00;77.50
48994;DHT22;34804;49.214;12.276;2022-08-19T09:15:48;23.20;78.60
48994;DHT22;34804;49.214;12.276;2022-08-19T09:18:15;23.30;78.00
48994;DHT22;34804;49.214;12.276;2022-08-19T09:20:46;23.20;77.30
48994;DHT22;34804;49.214;12.276;2022-08-19T09:23:16;23.10;76.80
48994;DHT22;34804;49.214;12.276;2022-08-19T09:25:43;23.10;77.00
48994;DHT22;34804;49.214;12.276;2022-08-19T09:28:10;23.20;76.40
48994;DHT22;34804;49.214;12.276;2022-08-19T09:30:51;23.40;77.80
48994;DHT22;34804;49.214;12.276;2022-08-19T09:33:18;23.60;77.10
48994;DHT22;34804;49.214;12.276;2022-08-19T09:35:46;23.60;75.30
48994;DHT22;34804;49.214;12.276;2022-08-19T09:38:20;23.60;75.10
48994;DHT22;34804;49.214;12.276;2022-08-19T09:40:47;23.70;74.80
48994;DHT22;34804;49.214;12.276;2022-08-19T09:43:14;23.60;75.20
48994;DHT22;34804;49.214;12.276;2022-08-19T09:45:59;23.80;74.00
48994;DHT22;34804;49.214;12.276;2022-08-19T09:48:26;23.90;72.90
48994;DHT22;34804;49.214;12.276;2022-08-19T09:50:53;24.20;73.60
48994;DHT22;34804;49.214;12.276;2022-08-19T09:53:21;24.30;72.10
48994;DHT22;34804;49.214;12.276;2022-08-19T09:55:52;24.40;72.40
48994;DHT22;34804;49.214;12.276;2022-08-19T09:58:21;24.30;71.20
48994;DHT22;34804;49.214;12.276;2022-08-19T10:00:52;24.10;71.50
48994;DHT22;34804;49.214;12.276;2022-08-19T10:03:20;24.10;72.10
48994;DHT22;34804;49.214;12.276;2022-08-19T10:05:51;24.30;73.20
48994;DHT22;34804;49.214;12.276;2022-08-19T10:08:27;24.30;72.20
48994;DHT22;34804;49.214;12.276;2022-08-19T10:10:55;24.10;71.20
48994;DHT22;34804;49.214;12.276;2022-08-19T10:13:26;24.10;72.10
48994;DHT22;34804;49.214;12.276;2022-08-19T10:15:56;23.90;73.70
48994;DHT22;34804;49.214;12.276;2022-08-19T10:18:24;23.80;72.70
48994;DHT22;34804;49.214;12.276;2022-08-19T10:21:06;23.70;73.80
48994;DHT22;34804;49.214;12.276;2022-08-19T10:23:40;23.80;73.30
48994;DHT22;34804;49.214;12.276;2022-08-19T10:26:07;23.80;73.30
48994;DHT22;34804;49.214;12.276;2022-08-19T10:28:35;23.80;72.20
48994;DHT22;34804;49.214;12.276;2022-08-19T10:31:11;23.90;72.50
48994;DHT22;34804;49.214;12.276;2022-08-19T10:33:39;23.80;71.90
48994;DHT22;34804;49.214;12.276;2022-08-19T10:36:23;23.80;72.00
48994;DHT22;34804;49.214;12.276;2022-08-19T10:38:52;23.90;71.90
48994;DHT22;34804;49.214;12.276;2022-08-19T10:41:25;23.90;72.50
48994;DHT22;34804;49.214;12.276;2022-08-19T10:43:58;23.90;72.70
48994;DHT22;34804;49.214;12.276;2022-08-19T10:46:30;23.80;72.30
48994;DHT22;34804;49.214;12.276;2022-08-19T10:49:00;23.70;72.70
48994;DHT22;34804;49.214;12.276;2022-08-19T10:51:28;23.60;72.50
48994;DHT22;34804;49.214;12.276;2022-08-19T10:54:15;23.50;73.60
48994;DHT22;34804;49.214;12.276;2022-08-19T10:56:56;23.50;73.40
48994;DHT22;34804;49.214;12.276;2022-08-19T10:59:27;23.50;73.80
48994;DHT22;34804;49.214;12.276;2022-08-19T11:02:02;23.50;73.50
48994;DHT22;34804;49.214;12.276;2022-08-19T11:04:30;23.50;73.40
48994;DHT22;34804;49.214;12.276;2022-08-19T11:06:58;23.50;72.70
48994;DHT22;34804;49.214;12.276;2022-08-19T11:09:26;23.80;73.70
48994;DHT22;34804;49.214;12.276;2022-08-19T11:12:00;23.90;72.90
48994;DHT22;34804;49.214;12.276;2022-08-19T11:14:30;24.10;72.60
48994;DHT22;34804;49.214;12.276;2022-08-19T11:17:00;24.40;71.10
48994;DHT22;34804;49.214;12.276;2022-08-19T11:19:27;24.70;70.50
48994;DHT22;34804;49.214;12.276;2022-08-19T11:21:54;24.70;68.80
48994;DHT22;34804;49.214;12.276;2022-08-19T11:24:26;24.50;69.50
48994;DHT22;34804;49.214;12.276;2022-08-19T11:26:58;24.40;70.10
48994;DHT22;34804;49.214;12.276;2022-08-19T11:29:26;24.30;70.10
48994;DHT22;34804;49.214;12.276;2022-08-19T11:31:54;24.10;70.00
48994;DHT22;34804;49.214;12.276;2022-08-19T11:34:24;24.00;70.70
48994;DHT22;34804;49.214;12.276;2022-08-19T11:36:53;24.00;71.40
48994;DHT22;34804;49.214;12.276;2022-08-19T11:39:27;24.00;70.80
48994;DHT22;34804;49.214;12.276;2022-08-19T11:41:54;24.00;72.20
48994;DHT22;34804;49.214;12.276;2022-08-19T11:44:21;24.10;71.40
48994;DHT22;34804;49.214;12.276;2022-08-19T11:46:48;24.00;70.70
48994;DHT22;34804;49.214;12.276;2022-08-19T11:49:18;24.10;70.30
48994;DHT22;34804;49.214;12.276;2022-08-19T11:51:48;24.10;70.60
48994;DHT22;34804;49.214;12.276;2022-08-19T11:54:19;24.20;70.80
48994;DHT22;34804;49.214;12.276;2022-08-19T11:56:46;24.10;70.30
48994;DHT22;34804;49.214;12.276;2022-08-19T11:59:14;24.00;69.90
48994;DHT22;34804;49.214;12.276;2022-08-19T12:01:41;24.00;70.60
48994;DHT22;34804;49.214;12.276;2022-08-19T12:04:10;23.90;71.00
48994;DHT22;34804;49.214;12.276;2022-08-19T12:06:39;23.90;71.80
48994;DHT22;34804;49.214;12.276;2022-08-19T12:09:07;23.90;70.80
48994;DHT22;34804;49.214;12.276;2022-08-19T12:11:37;23.90;71.30
48994;DHT22;34804;49.214;12.276;2022-08-19T12:14:04;23.90;70.40
48994;DHT22;34804;49.214;12.276;2022-08-19T12:16:32;23.90;70.10
48994;DHT22;34804;49.214;12.276;2022-08-19T12:19:00;23.90;70.70
48994;DHT22;34804;49.214;12.276;2022-08-19T12:21:32;23.90;69.20
48994;DHT22;34804;49.214;12.276;2022-08-19T12:24:01;23.90;70.10
48994;DHT22;34804;49.214;12.276;2022-08-19T12:26:30;23.80;70.10
48994;DHT22;34804;49.214;12.276;2022-08-19T12:28:58;23.80;71.00
48994;DHT22;34804;49.214;12.276;2022-08-19T12:31:27;23.80;73.80
48994;DHT22;34804;49.214;12.276;2022-08-19T12:33:55;23.60;74.60
48994;DHT22;34804;49.214;12.276;2022-08-19T12:36:22;23.50;77.60
48994;DHT22;34804;49.214;12.276;2022-08-19T12:38:50;23.40;79.70
48994;DHT22;34804;49.214;12.276;2022-08-19T12:41:18;23.40;81.00
48994;DHT22;34804;49.214;12.276;2022-08-19T12:43:45;23.40;82.50
48994;DHT22;34804;49.214;12.276;2022-08-19T12:46:12;23.40;82.80
48994;DHT22;34804;49.214;12.276;2022-08-19T12:48:39;23.50;83.10
48994;DHT22;34804;49.214;12.276;2022-08-19T12:51:16;23.50;82.50
48994;DHT22;34804;49.214;12.276;2022-08-19T12:53:43;23.50;81.80
48994;DHT22;34804;49.214;12.276;2022-08-19T12:56:11;23.50;81.50
48994;DHT22;34804;49.214;12.276;2022-08-19T12:58:39;23.40;81.30
48994;DHT22;34804;49.214;12.276;2022-08-19T13:01:17;23.30;82.20
48994;DHT22;34804;49.214;12.276;2022-08-19T13:03:49;23.30;83.20
48994;DHT22;34804;49.214;12.276;2022-08-19T13:06:16;23.20;83.70
48994;DHT22;34804;49.214;12.276;2022-08-19T13:08:45;23.00;84.00
48994;DHT22;34804;49.214;12.276;2022-08-19T13:11:14;22.90;84.80
48994;DHT22;34804;49.214;12.276;2022-08-19T13:13:47;22.70;85.00
48994;DHT22;34804;49.214;12.276;2022-08-19T13:16:14;22.30;85.90
48994;DHT22;34804;49.214;12.276;2022-08-19T13:18:45;22.10;87.00
48994;DHT22;34804;49.214;12.276;2022-08-19T13:21:14;22.10;87.30
48994;DHT22;34804;49.214;12.276;2022-08-19T13:23:41;22.10;86.50
48994;DHT22;34804;49.214;12.276;2022-08-19T13:26:09;22.00;87.40
48994;DHT22;34804;49.214;12.276;2022-08-19T13:28:37;22.00;88.00
48994;DHT22;34804;49.214;12.276;2022-08-19T13:31:27;21.90;87.20
48994;DHT22;34804;49.214;12.276;2022-08-19T13:34:13;21.80;88.20
48994;DHT22;34804;49.214;12.276;2022-08-19T13:36:41;21.50;87.50
48994;DHT22;34804;49.214;12.276;2022-08-19T13:39:08;21.40;87.70
48994;DHT22;34804;49.214;12.276;2022-08-19T13:41:36;21.30;88.10
48994;DHT22;34804;49.214;12.276;2022-08-19T13:44:04;21.30;89.00
48994;DHT22;34804;49.214;12.276;2022-08-19T13:46:32;21.20;89.10
48994;DHT22;34804;49.214;12.276;2022-08-19T13:48:59;21.10;89.50
48994;DHT22;34804;49.214;12.276;2022-08-19T13:51:26;21.00;89.10
48994;DHT22;34804;49.214;12.276;2022-08-19T13:53:53;21.00;89.20
48994;DHT22;34804;49.214;12.276;2022-08-19T13:56:21;21.00;89.30
48994;DHT22;34804;49.214;12.276;2022-08-19T13:58:52;21.00;89.50
48994;DHT22;34804;49.214;12.276;2022-08-19T14:01:23;21.00;88.90
48994;DHT22;34804;49.214;12.276;2022-08-19T14:03:50;20.80;89.30
48994;DHT22;34804;49.214;12.276;2022-08-19T14:06:18;20.80;90.10
48994;DHT22;34804;49.214;12.276;2022-08-19T14:08:45;20.80;90.90
48994;DHT22;34804;49.214;12.276;2022-08-19T14:11:13;20.70;90.80
48994;DHT22;34804;49.214;12.276;2022-08-19T14:13:40;20.70;91.10
48994;DHT22;34804;49.214;12.276;2022-08-19T14:16:11;20.60;91.10
48994;DHT22;34804;49.214;12.276;2022-08-19T14:18:38;20.70;91.60
48994;DHT22;34804;49.214;12.276;2022-08-19T14:21:07;20.70;91.60
48994;DHT22;34804;49.214;12.276;2022-08-19T14:23:34;20.70;91.70
48994;DHT22;34804;49.214;12.276;2022-08-19T14:26:08;20.70;91.50
48994;DHT22;34804;49.214;12.276;2022-08-19T14:28:35;20.60;91.70
48994;DHT22;34804;49.214;12.276;2022-08-19T14:31:02;20.50;91.70
48994;DHT22;34804;49.214;12.276;2022-08-19T14:33:29;20.30;92.10
48994;DHT22;34804;49.214;12.276;2022-08-19T14:35:56;20.20;92.70
48994;DHT22;34804;49.214;12.276;2022-08-19T14:38:25;20.00;93.40
48994;DHT22;34804;49.214;12.276;2022-08-19T14:41:27;19.90;94.10
48994;DHT22;34804;49.214;12.276;2022-08-19T14:43:54;20.00;94.30
48994;DHT22;34804;49.214;12.276;2022-08-19T14:46:24;20.20;94.40
48994;DHT22;34804;49.214;12.276;2022-08-19T14:48:54;20.40;94.70
48994;DHT22;34804;49.214;12.276;2022-08-19T14:51:24;20.40;94.40
48994;DHT22;34804;49.214;12.276;2022-08-19T14:53:53;20.60;94.20
48994;DHT22;34804;49.214;12.276;2022-08-19T14:56:23;20.70;93.70
48994;DHT22;34804;49.214;12.276;2022-08-19T14:58:50;20.90;93.70
48994;DHT22;34804;49.214;12.276;2022-08-19T15:01:20;20.90;92.90
48994;DHT22;34804;49.214;12.276;2022-08-19T15:03:48;20.80;91.80
48994;DHT22;34804;49.214;12.276;2022-08-19T15:06:15;20.80;91.00
48994;DHT22;34804;49.214;12.276;2022-08-19T15:08:42;20.80;91.00
48994;DHT22;34804;49.214;12.276;2022-08-19T15:11:14;20.90;91.40
48994;DHT22;34804;49.214;12.276;2022-08-19T15:13:43;20.90;90.00
48994;DHT22;34804;49.214;12.276;2022-08-19T15:16:11;21.00;90.50
48994;DHT22;34804;49.214;12.276;2022-08-19T15:18:45;21.20;91.30
48994;DHT22;34804;49.214;12.276;2022-08-19T15:21:13;21.40;91.40
48994;DHT22;34804;49.214;12.276;2022-08-19T15:23:53;21.60;91.20
48994;DHT22;34804;49.214;12.276;2022-08-19T15:26:21;21.70;91.30
48994;DHT22;34804;49.214;12.276;2022-08-19T15:28:48;21.60;90.30
48994;DHT22;34804;49.214;12.276;2022-08-19T15:31:17;21.60;90.40
48994;DHT22;34804;49.214;12.276;2022-08-19T15:33:55;21.60;91.00
48994;DHT22;34804;49.214;12.276;2022-08-19T15:36:24;21.50;90.90
48994;DHT22;34804;49.214;12.276;2022-08-19T15:38:53;21.50;90.40